Latest Coastal Weather Observations for Port Augusta

IDS60701

Issued at 6:25 pm CDT Sunday 26 October 2014 (issued every 10 minutes, with the page automatically refreshed every 10 minutes)

About coastal observations | Map of coastal stations | Coastal observations for SA | Marine services | Other Formats
Station Details ID: 018201 Name: PORT AUGUSTA AERO Lat: -32.51 Lon: 137.72 Height: 13.97 m
Data from the previous 72 hours. | See also: Recent months at Port Augusta
Date/Time
CDT
Temp

°C
Wind Pressure Rain
since 9am
mm
Weather Cloud Vis
km
Sea
Height
m
Swell
Dir
 
Speed
knots
Gust
knots
hPa Trend Height
m
Period
s
Dir
26/06:00pm 33.9 N 14 19 1005.9 - 0.0 - - - - - - -
26/05:30pm 35.0 N 16 24 1005.8 - 0.0 - - - - - - -
26/05:00pm 35.4 N 17 23 1005.9 - 0.0 - - - - - - -
26/04:30pm 36.8 N 17 22 1005.8 - 0.0 - - - - - - -
26/04:00pm 35.5 N 19 25 1006.2 - 0.0 - - - - - - -
26/03:30pm 34.3 NNE 17 22 1006.9 - 0.0 - - - - - - -
26/03:00pm 33.9 NNE 18 23 1007.5 - 0.0 - - - - - - -
26/02:30pm 33.3 NNE 14 19 1008.9 - 0.0 - - - - - - -
26/02:00pm 28.8 ENE 13 17 1009.5 - 0.0 - - - - - - -
26/01:30pm 25.8 ENE 17 22 1010.2 - 0.0 - Partly cloudy - - - - -
26/01:14pm 25.7 ESE 16 20 1011.6 - 0.0 - Cloudy - - - - -
26/01:00pm 27.1 SSE 10 13 1013.7 - 0.0 - Partly cloudy - - - - -
26/12:30pm 26.2 SW 13 17 1014.6 - 0.0 - Partly cloudy - - - - -
26/12:00pm 27.9 SW 7 10 1014.5 - 0.0 - Cloudy - - - - -
26/11:30am 27.3 SW 15 20 1014.6 - 0.0 - Partly cloudy - - - - -
26/11:24am 26.8 SW 15 20 1014.7 - 0.0 - Partly cloudy - - - - -
26/11:00am 25.2 NNE 4 7 1013.4 - 0.0 - Partly cloudy - - - - -
26/10:30am 23.8 NW 3 5 1013.5 - 0.0 - - - - - - -
26/10:00am 23.3 ESE 7 9 1013.3 - 0.0 - - - - - - -
26/09:30am 21.7 SE 10 14 1013.7 - 0.0 - - - - - - -
26/09:00am 21.9 SE 11 14 1014.1 - 0.0 - Mostly clear - - - - -
26/08:30am 20.8 SSE 9 13 1014.4 - 0.0 - Partly cloudy - - - - -
26/08:00am 19.9 ESE 11 15 1014.0 - 0.0 - - - - - - -
26/07:30am 20.9 E 8 13 1013.3 - 0.0 - Partly cloudy - - - - -
26/07:00am 21.1 SSW 18 27 1012.8 - 0.0 - - - - - - -
26/06:57am 21.1 SSW 18 30 1012.8 - 0.0 - - - - - - -
26/06:51am 19.6 SSW 23 30 1012.4 - 0.0 - - - - - - -
26/06:49am 18.5 WSW 15 30 1012.5 - 0.0 - - - - - - -
26/06:30am 17.5 WNW 6 7 1011.3 - 0.0 - - - - - - -
26/06:00am 18.2 S 6 8 1011.1 - 0.0 - - - - - - -
26/05:30am 15.9 S 5 7 1010.6 - 0.0 - - - - - - -
26/05:00am 16.2 CALM 0 3 1010.7 - 0.0 - - - - - - -
26/04:30am 15.9 SW 4 5 1011.2 - 0.0 - - - - - - -
26/04:00am 18.1 SSE 8 10 1011.0 - 0.0 - - - - - - -
26/03:30am 18.1 SE 9 12 1011.5 - 0.0 - - - - - - -
26/03:00am 18.0 SE 7 9 1011.9 - 0.0 - - - - - - -
26/02:30am 17.5 SSE 6 9 1012.4 - 0.0 - - - - - - -
26/02:00am 17.8 SSE 7 9 1012.8 - 0.0 - - - - - - -
26/01:30am 18.5 SSE 9 11 1013.3 - 0.0 - - - - - - -
26/01:00am 18.8 SE 8 11 1013.6 - 0.0 - - - - - - -
26/12:30am 19.0 SE 8 11 1014.2 - 0.0 - - - - - - -
26/12:00am 19.4 SE 8 10 1014.8 - 0.0 - - - - - - -
 
Date/Time
CDT
Temp

°C
Wind Pressure Rain
since 9am
mm
Weather Cloud Vis
km
Sea
Height
m
Swell
Dir
 
Speed
knots
Gust
knots
hPa Trend Height
m
Period
s
Dir
25/11:30pm 19.6 SE 9 11 1015.1 - 0.0 - - - - - - -
25/11:00pm 20.3 SE 9 12 1015.3 - 0.0 - - - - - - -
25/10:30pm 20.8 ESE 11 15 1015.3 - 0.0 - - - - - - -
25/10:00pm 21.7 ESE 11 15 1015.3 - 0.0 - - - - - - -
25/09:30pm 23.2 SE 11 15 1015.1 - 0.0 - - - - - - -
25/09:00pm 23.8 SE 13 18 1015.1 - 0.0 - - - - - - -
25/08:30pm 23.3 SE 11 15 1014.8 - 0.0 - - - - - - -
25/08:00pm 23.4 SE 11 15 1014.6 - 0.0 - - - - - - -
25/07:30pm 23.1 SE 12 16 1014.1 - 0.0 - - - - - - -
25/07:00pm 24.3 SE 14 19 1013.8 - 0.0 - - - - - - -
25/06:30pm 26.2 SE 17 23 1013.4 - 0.0 - - - - - - -
25/06:00pm 27.8 SE 16 22 1013.6 - 0.0 - - - - - - -
25/05:30pm 28.5 SE 18 23 1013.5 - 0.0 - - - - - - -
25/05:00pm 29.5 SSE 18 21 1013.4 - 0.0 - - - - - - -
25/04:30pm 29.1 SE 16 21 1013.5 - 0.0 - - - - - - -
25/04:00pm 28.5 SSE 18 22 1013.5 - 0.0 - - - - - - -
25/03:30pm 28.1 SE 16 21 1013.8 - 0.0 - - - - - - -
25/03:00pm 27.3 SE 16 21 1014.1 - 0.0 - - - - - - -
25/02:30pm 26.4 SE 14 17 1014.6 - 0.0 - - - - - - -
25/02:00pm 27.2 ESE 14 18 1015.1 - 0.0 - - - - - - -
25/01:30pm 27.2 ESE 15 19 1015.4 - 0.0 - - - - - - -
25/01:00pm 26.8 ESE 14 19 1015.8 - 0.0 - - - - - - -
25/12:30pm 25.6 SE 13 17 1016.0 - 0.0 - - - - - - -
25/12:00pm 25.2 SE 13 18 1016.4 - 0.0 - - - - - - -
25/11:30am 23.3 SE 14 17 1016.8 - 0.0 - - - - - - -
25/11:00am 22.8 SE 13 16 1017.0 - 0.0 - - - - - - -
25/10:30am 21.2 ESE 13 16 1017.3 - 0.0 - - - - - - -
25/10:00am 21.0 ESE 13 17 1017.6 - 0.0 - - - - - - -
25/09:30am 20.7 SE 13 17 1017.6 - 0.0 - - - - - - -
25/09:00am 19.8 SE 13 19 1017.4 - 0.0 - - - - - - -
25/08:30am 19.3 SSE 15 19 1017.5 - 0.0 - - - - - - -
25/08:05am 18.6 SSE 13 18 1017.7 - 0.0 - Partly cloudy - - - - -
25/08:00am 18.6 SSE 12 16 1017.5 - 0.0 - Partly cloudy - - - - -
25/07:30am 17.8 S 14 19 1017.5 - 0.0 - Cloudy - - - - -
25/07:12am 17.6 SSE 12 15 1017.0 - 0.0 - Partly cloudy - - - - -
25/07:00am 17.5 SSE 11 14 1016.8 - 0.0 - - - - - - -
25/06:30am 16.6 SSE 7 9 1016.5 - 0.0 - - - - - - -
25/06:00am 17.2 S 7 8 1015.8 - 0.0 - - - - - - -
25/05:30am 17.4 S 6 8 1015.5 - 0.0 - - - - - - -
25/05:00am 17.7 S 7 8 1015.3 - 0.0 - - - - - - -
25/04:30am 18.8 S 6 9 1014.9 - 0.0 - - - - - - -
25/04:00am 19.1 SSE 9 13 1014.7 - 0.0 - - - - - - -
25/03:30am 19.1 SSE 11 15 1014.2 - 0.0 - - - - - - -
25/03:00am 19.5 SE 7 9 1014.4 - 0.0 - - - - - - -
25/02:30am 19.1 SSW 10 13 1014.4 - 0.0 - - - - - - -
25/02:00am 20.0 SSW 15 19 1014.4 - 0.0 - - - - - - -
25/01:30am 20.5 S 9 12 1014.6 - 0.0 - - - - - - -
25/01:00am 20.6 ESE 10 13 1014.1 - 0.0 - - - - - - -
25/12:30am 21.5 ESE 9 12 1013.9 - 0.0 - - - - - - -
25/12:00am 22.2 SE 7 9 1014.2 - 0.0 - - - - - - -
 
Date/Time
CDT
Temp

°C
Wind Pressure Rain
since 9am
mm
Weather Cloud Vis
km
Sea
Height
m
Swell
Dir
 
Speed
knots
Gust
knots
hPa Trend Height
m
Period
s
Dir
24/11:30pm 22.3 SSE 7 10 1014.2 - 0.0 - - - - - - -
24/11:00pm 22.5 SSE 7 10 1014.1 - 0.0 - - - - - - -
24/10:30pm 22.5 SSE 9 14 1014.5 - 0.0 - - - - - - -
24/10:00pm 21.8 SE 11 19 1013.9 - 0.0 - - - - - - -
24/09:30pm 22.4 SE 13 21 1013.9 - 0.0 - - - - - - -
24/09:00pm 22.8 SE 15 20 1013.4 - 0.0 - - - - - - -
24/08:30pm 24.8 SE 19 26 1011.7 - 0.0 - - - - - - -
24/08:23pm 25.3 SE 16 26 1011.6 - 0.0 - - - - - - -
24/08:17pm 26.9 SE 14 23 1011.4 - 0.0 - - - - - - -
24/08:00pm 32.0 S 6 9 1011.0 - 0.0 - - - - - - -
24/07:30pm 35.8 WNW 9 12 1010.4 - 0.0 - - - - - - -
24/07:00pm 37.6 W 14 20 1010.0 - 0.0 - - - - - - -
24/06:30pm 38.7 WNW 13 17 1009.8 - 0.0 - - - - - - -
24/06:00pm 39.1 WNW 14 22 1009.6 - 0.0 - - - - - - -
24/05:30pm 39.0 WNW 9 14 1009.6 - 0.0 - - - - - - -
24/05:00pm 39.6 WNW 11 14 1009.7 - 0.0 - - - - - - -
24/04:30pm 39.6 NW 15 20 1009.9 - 0.0 - - - - - - -
24/04:00pm 39.2 W 12 20 1010.0 - 0.0 - - - - - - -
24/03:30pm 39.9 SW 11 18 1010.2 - 0.0 - - - - - - -
24/03:00pm 39.1 NNW 9 14 1010.8 - 0.0 - - - - - - -
24/02:30pm 38.6 NW 8 21 1011.4 - 0.0 - - - - - - -
24/02:00pm 37.1 NNW 10 17 1012.0 - 0.0 - - - - - - -
24/01:30pm 38.0 NNW 12 19 1012.4 - 0.0 - - - - - - -
24/01:00pm 37.5 N 9 15 1012.7 - 0.0 - - - - - - -
24/12:30pm 35.9 NNW 9 13 1013.0 - 0.0 - - - - - - -
24/12:00pm 35.1 N 9 16 1013.5 - 0.0 - - - - - - -
24/11:30am 33.5 N 9 14 1013.8 - 0.0 - - - - - - -
24/11:00am 32.1 NNW 9 14 1014.2 - 0.0 - - - - - - -
24/10:30am 29.3 NNW 7 9 1014.2 - 0.0 - - - - - - -
24/10:00am 28.1 NNW 6 8 1014.4 - 0.0 - - - - - - -
24/09:30am 25.1 WNW 5 7 1014.4 - 0.0 - - - - - - -
24/09:00am 22.5 WNW 5 7 1014.4 - 0.0 - - - - - - -
24/08:30am 20.6 WSW 3 5 1014.3 - 0.0 - - - - - - -
24/08:00am 18.7 W 3 4 1014.5 - 0.0 - - - - - - -
24/07:30am 16.8 SW 3 3 1014.5 - 0.0 - - - - - - -
24/07:00am 15.8 NW 4 5 1014.4 - 0.0 - - - - - - -
24/06:30am 16.5 E 5 6 1013.8 - 0.0 - - - - - - -
24/06:00am 16.1 N 4 7 1014.4 - 0.0 - - - - - - -
24/05:30am 16.6 CALM 0 0 1013.6 - 0.0 - - - - - - -
24/05:00am 16.7 SSW 4 5 1013.6 - 0.0 - - - - - - -
24/04:30am 17.9 CALM 0 0 1013.2 - 0.0 - - - - - - -
24/04:00am 18.3 W 3 5 1012.9 - 0.0 - - - - - - -
24/03:30am 18.6 SSE 6 8 1012.9 - 0.0 - - - - - - -
24/03:00am 18.7 SE 6 8 1012.7 - 0.0 - - - - - - -
24/02:30am 18.6 E 5 6 1013.0 - 0.0 - - - - - - -
24/02:00am 17.2 S 7 9 1013.3 - 0.0 - - - - - - -
24/01:30am 18.3 SE 6 8 1013.8 - 0.0 - - - - - - -
24/01:00am 18.4 ESE 7 9 1014.4 - 0.0 - - - - - - -
24/12:30am 18.2 SE 8 11 1015.1 - 0.0 - - - - - - -
24/12:00am 18.5 SE 9 13 1015.7 - 0.0 - - - - - - -
 
Date/Time
CDT
Temp

°C
Wind Pressure Rain
since 9am
mm
Weather Cloud Vis
km
Sea
Height
m
Swell
Dir
 
Speed
knots
Gust
knots
hPa Trend Height
m
Period
s
Dir
23/11:30pm 18.3 SSE 8 10 1015.8 - 0.0 - - - - - - -
23/11:00pm 18.5 SSE 8 11 1015.8 - 0.0 - - - - - - -
23/10:30pm 18.6 S 6 9 1016.0 - 0.0 - - - - - - -
23/10:00pm 19.1 SE 14 22 1015.4 - 0.0 - - - - - - -
23/09:30pm 19.7 ESE 12 17 1015.3 - 0.0 - - - - - - -
23/09:00pm 21.1 SE 7 9 1015.1 - 0.0 - - - - - - -
23/08:30pm 22.4 SSE 8 15 1014.6 - 0.0 - - - - - - -
23/08:00pm 23.4 SE 12 16 1013.9 - 0.0 - - - - - - -
23/07:30pm 24.1 SE 12 17 1013.4 - 0.0 - - - - - - -
23/07:00pm 24.8 SE 13 17 1013.2 - 0.0 - - - - - - -
23/06:30pm 24.9 SSE 17 21 1013.0 - 0.0 - - - - - - -

Other Formats:

Comma delimited format used in spreadsheet applications
http://www.bom.gov.au/fwo/IDS60701/IDS60701.95666.axf

JavaScript Object Notation format (JSON) in row-major order
http://www.bom.gov.au/fwo/IDS60701/IDS60701.95666.json